Time,TemperatureF,DewpointF,PressureIn,WindDirection,WindDirectionDegrees,WindSpeedMPH,WindSpeedGustMPH,Humidity,HourlyPrecipIn,Conditions,Clouds,dailyrainin,SoftwareType,DateUTC
2013-06-16 00:01:00,58.5,57.6,30.11,NW,313,0.0,0.0,97,0.00,,,0.00,meteohub,2013-06-16 04:01:00,
2013-06-16 00:02:00,58.5,57.6,30.11,NW,314,0.0,0.0,97,0.00,,,0.00,meteohub,2013-06-16 04:02:00,
2013-06-16 00:07:00,58.3,57.4,30.11,NW,314,0.0,0.0,97,0.00,,,0.00,meteohub,2013-06-16 04:07:00,
2013-06-16 00:12:00,58.1,57.2,30.11,NW,314,0.0,0.0,97,0.00,,,0.00,meteohub,2013-06-16 04:12:00,
2013-06-16 00:17:00,57.9,57.0,30.11,NW,314,0.0,0.0,97,0.00,,,0.00,meteohub,2013-06-16 04:17:00,
2013-06-16 00:23:00,58.1,57.6,30.11,NW,314,0.0,0.0,98,0.00,,,0.00,meteohub,2013-06-16 04:23:00,
2013-06-16 00:28:00,57.9,57.4,30.11,NW,314,0.0,0.0,98,0.00,,,0.00,meteohub,2013-06-16 04:28:00,
2013-06-16 00:33:00,57.9,57.4,30.11,NW,313,0.0,0.0,98,0.00,,,0.00,meteohub,2013-06-16 04:33:00,
2013-06-16 00:38:00,57.9,57.4,30.11,NW,313,0.0,0.0,98,0.00,,,0.00,meteohub,2013-06-16 04:38:00,
2013-06-16 00:43:00,58.1,57.6,30.11,NW,315,0.0,0.0,98,0.00,,,0.00,meteohub,2013-06-16 04:43:00,
2013-06-16 00:48:00,57.9,57.4,30.11,NW,315,0.0,0.0,98,0.00,,,0.00,meteohub,2013-06-16 04:48:00,
2013-06-16 00:53:00,57.7,57.2,30.11,NW,315,0.0,0.0,98,0.00,,,0.00,meteohub,2013-06-16 04:53:00,
2013-06-16 00:58:00,57.7,57.2,30.11,NW,315,0.0,0.0,98,0.00,,,0.00,meteohub,2013-06-16 04:58:00,
2013-06-16 01:03:00,57.9,57.4,30.11,NW,315,0.0,0.0,98,0.00,,,0.00,meteohub,2013-06-16 05:03:00,
2013-06-16 01:08:00,57.7,57.2,30.11,NW,315,0.0,0.0,98,0.00,,,0.00,meteohub,2013-06-16 05:08:00,
2013-06-16 01:13:00,57.6,57.0,30.11,NW,315,0.0,0.0,98,0.00,,,0.00,meteohub,2013-06-16 05:13:00,
2013-06-16 01:18:00,57.6,57.0,30.11,NW,315,0.0,0.0,98,0.00,,,0.00,meteohub,2013-06-16 05:18:00,
2013-06-16 01:23:00,57.4,56.8,30.10,NW,315,0.0,0.0,98,0.00,,,0.00,meteohub,2013-06-16 05:23:00,
2013-06-16 01:28:00,57.4,56.8,30.10,NW,315,0.0,0.0,98,0.00,,,0.00,meteohub,2013-06-16 05:28:00,
2013-06-16 01:33:00,57.4,56.8,30.11,NW,315,0.0,0.0,98,0.00,,,0.00,meteohub,2013-06-16 05:33:00,
2013-06-16 01:38:00,57.4,56.8,30.10,NW,316,0.0,0.0,98,0.00,,,0.00,meteohub,2013-06-16 05:38:00,
2013-06-16 01:43:00,57.4,56.8,30.10,NW,316,0.0,0.0,98,0.00,,,0.00,meteohub,2013-06-16 05:43:00,
2013-06-16 01:48:00,57.4,56.8,30.10,NW,316,0.0,0.0,98,0.00,,,0.00,meteohub,2013-06-16 05:48:00,
2013-06-16 01:53:00,57.4,56.8,30.10,NW,316,0.0,0.0,98,0.00,,,0.00,meteohub,2013-06-16 05:53:00,
2013-06-16 01:58:00,57.4,56.8,30.10,NW,316,0.0,0.0,98,0.00,,,0.00,meteohub,2013-06-16 05:58:00,
2013-06-16 02:03:00,57.0,56.5,30.09,NW,316,0.0,0.0,98,0.00,,,0.00,meteohub,2013-06-16 06:03:00,
2013-06-16 02:08:00,57.0,56.5,30.09,NW,316,0.0,0.0,98,0.00,,,0.00,meteohub,2013-06-16 06:08:00,
2013-06-16 02:13:00,56.8,56.3,30.09,NW,316,0.0,0.0,98,0.00,,,0.00,meteohub,2013-06-16 06:13:00,
2013-06-16 02:18:00,56.8,56.3,30.09,NW,316,0.0,0.0,98,0.00,,,0.00,meteohub,2013-06-16 06:18:00,
2013-06-16 02:23:00,56.8,56.3,30.09,NW,316,0.0,0.0,98,0.00,,,0.00,meteohub,2013-06-16 06:23:00,
2013-06-16 02:28:00,56.7,56.1,30.09,NW,316,0.0,0.0,98,0.00,,,0.00,meteohub,2013-06-16 06:28:00,
2013-06-16 02:33:00,56.7,56.1,30.09,NW,316,0.0,0.0,98,0.00,,,0.00,meteohub,2013-06-16 06:33:00,
2013-06-16 02:38:00,56.7,56.3,30.09,NW,316,0.0,0.0,99,0.00,,,0.00,meteohub,2013-06-16 06:38:00,
2013-06-16 02:43:00,56.7,56.3,30.09,NW,316,0.0,0.0,99,0.00,,,0.00,meteohub,2013-06-16 06:43:00,
2013-06-16 02:48:00,56.7,56.3,30.09,NW,316,0.0,0.0,99,0.00,,,0.00,meteohub,2013-06-16 06:48:00,
2013-06-16 02:53:00,56.5,56.1,30.09,NW,316,0.0,0.0,99,0.00,,,0.00,meteohub,2013-06-16 06:53:00,
2013-06-16 02:58:00,56.7,56.3,30.09,NW,316,0.0,0.0,99,0.00,,,0.00,meteohub,2013-06-16 06:58:00,
2013-06-16 03:04:00,56.7,56.3,30.09,NW,316,0.0,0.0,99,0.00,,,0.00,meteohub,2013-06-16 07:04:00,
2013-06-16 03:08:00,56.5,56.1,30.08,NW,316,0.0,0.0,99,0.00,,,0.00,meteohub,2013-06-16 07:08:00,
2013-06-16 03:14:00,56.5,56.1,30.08,NW,316,0.0,0.0,99,0.00,,,0.00,meteohub,2013-06-16 07:14:00,
2013-06-16 03:19:00,56.5,56.1,30.08,NW,316,0.0,0.0,99,0.00,,,0.00,meteohub,2013-06-16 07:19:00,
2013-06-16 03:24:00,56.7,56.3,30.08,NW,315,0.0,0.0,99,0.00,,,0.00,meteohub,2013-06-16 07:24:00,
2013-06-16 03:29:00,56.8,56.5,30.08,NW,315,0.0,0.0,99,0.00,,,0.00,meteohub,2013-06-16 07:29:00,
2013-06-16 03:34:00,56.7,56.3,30.08,NW,316,0.0,0.0,99,0.00,,,0.00,meteohub,2013-06-16 07:34:00,
2013-06-16 03:39:00,56.7,56.3,30.08,NW,316,0.0,0.0,99,0.00,,,0.00,meteohub,2013-06-16 07:39:00,
2013-06-16 03:44:00,56.7,56.3,30.09,NW,316,0.0,0.0,99,0.00,,,0.00,meteohub,2013-06-16 07:44:00,
2013-06-16 03:49:00,56.5,56.1,30.09,NW,316,0.0,0.0,99,0.00,,,0.00,meteohub,2013-06-16 07:49:00,
2013-06-16 03:54:00,56.5,56.1,30.09,NW,316,0.0,0.0,99,0.00,,,0.00,meteohub,2013-06-16 07:54:00,
2013-06-16 03:59:00,56.5,56.1,30.09,NW,316,0.0,0.0,99,0.00,,,0.00,meteohub,2013-06-16 07:59:00,
2013-06-16 04:04:00,56.5,56.1,30.09,NW,316,0.0,0.0,99,0.00,,,0.00,meteohub,2013-06-16 08:04:00,
2013-06-16 04:09:00,56.5,56.1,30.09,NW,316,0.0,0.0,99,0.00,,,0.00,meteohub,2013-06-16 08:09:00,
2013-06-16 04:14:00,56.5,56.1,30.09,NW,316,0.0,0.0,99,0.00,,,0.00,meteohub,2013-06-16 08:14:00,
2013-06-16 04:19:00,56.5,56.1,30.09,NW,316,0.0,0.0,99,0.00,,,0.00,meteohub,2013-06-16 08:19:00,
2013-06-16 04:24:00,56.3,55.9,30.09,NW,316,0.0,0.0,99,0.00,,,0.00,meteohub,2013-06-16 08:24:00,
2013-06-16 04:29:00,56.1,55.8,30.09,NW,316,0.0,0.0,99,0.00,,,0.00,meteohub,2013-06-16 08:29:00,
2013-06-16 04:34:00,55.9,55.6,30.09,NW,316,0.0,0.0,99,0.00,,,0.00,meteohub,2013-06-16 08:34:00,
2013-06-16 04:39:00,55.8,55.4,30.09,NW,316,0.0,0.0,99,0.00,,,0.00,meteohub,2013-06-16 08:39:00,
2013-06-16 04:44:00,55.8,55.4,30.09,NW,315,0.0,0.0,99,0.00,,,0.00,meteohub,2013-06-16 08:44:00,
2013-06-16 04:49:00,55.8,55.4,30.10,NNW,346,0.0,0.0,99,0.00,,,0.00,meteohub,2013-06-16 08:49:00,
2013-06-16 04:54:00,54.9,54.5,30.10,NNW,346,0.0,0.0,99,0.00,,,0.00,meteohub,2013-06-16 08:54:00,
2013-06-16 04:59:00,54.9,54.5,30.10,North,-999,-999.0,0.0,99,0.00,,,0.00,meteohub,2013-06-16 08:59:00,
2013-06-16 05:04:00,54.9,54.5,30.10,North,-999,-999.0,0.0,99,0.00,,,0.00,meteohub,2013-06-16 09:04:00,
2013-06-16 07:00:00,55.0,54.7,30.12,North,-999,-999.0,-999.0,99,-99.99,,,0.00,meteohub,2013-06-16 11:00:00,
2013-06-16 07:05:00,55.4,55.0,30.13,North,-999,-999.0,-999.0,99,0.00,,,0.00,meteohub,2013-06-16 11:05:00,
2013-06-16 07:10:00,55.8,55.4,30.12,NNW,345,0.0,0.0,99,0.00,,,0.00,meteohub,2013-06-16 11:10:00,
2013-06-16 07:15:00,55.9,55.6,30.12,NNW,344,0.0,0.0,99,0.00,,,0.00,meteohub,2013-06-16 11:15:00,
2013-06-16 07:20:00,56.1,55.8,30.13,NNW,345,0.0,0.0,99,0.00,,,0.00,meteohub,2013-06-16 11:20:00,
2013-06-16 07:25:00,56.3,55.9,30.13,NNW,344,0.0,0.0,99,0.00,,,0.00,meteohub,2013-06-16 11:25:00,
2013-06-16 07:30:00,56.5,56.1,30.13,NNW,345,0.0,0.0,99,0.00,,,0.00,meteohub,2013-06-16 11:30:00,
2013-06-16 07:35:00,56.7,56.3,30.13,NNW,345,0.0,0.0,99,0.00,,,0.00,meteohub,2013-06-16 11:35:00,
2013-06-16 07:40:00,57.2,57.2,30.13,NNW,345,0.0,0.0,100,0.00,,,0.00,meteohub,2013-06-16 11:40:00,
2013-06-16 07:45:00,57.7,57.7,30.13,NNW,345,0.0,0.0,100,0.00,,,0.00,meteohub,2013-06-16 11:45:00,
2013-06-16 07:50:00,58.3,58.3,30.14,East,86,0.0,0.0,100,0.00,,,0.00,meteohub,2013-06-16 11:50:00,
2013-06-16 07:55:00,58.5,58.5,30.14,ESE,102,0.0,1.0,100,0.00,,,0.00,meteohub,2013-06-16 11:55:00,
2013-06-16 08:00:00,58.6,58.6,30.14,East,101,0.0,1.0,100,0.00,,,0.00,meteohub,2013-06-16 12:00:00,
2013-06-16 08:05:00,58.8,58.8,30.14,East,101,0.0,1.0,100,0.00,,,0.00,meteohub,2013-06-16 12:05:00,
2013-06-16 08:11:00,59.4,59.4,30.14,East,101,0.0,0.0,100,0.00,,,0.00,meteohub,2013-06-16 12:11:00,
2013-06-16 08:16:00,60.3,60.3,30.14,ESE,102,0.0,0.0,100,0.00,,,0.00,meteohub,2013-06-16 12:16:00,
2013-06-16 08:21:00,61.7,61.7,30.13,ESE,102,0.0,0.0,100,0.00,,,0.00,meteohub,2013-06-16 12:21:00,
2013-06-16 08:26:00,62.1,61.7,30.13,ESE,102,0.0,0.0,99,0.00,,,0.00,meteohub,2013-06-16 12:26:00,
2013-06-16 08:31:00,62.8,61.7,30.13,SE,129,0.0,1.0,96,0.00,,,0.00,meteohub,2013-06-16 12:31:00,
2013-06-16 08:36:00,63.5,62.4,30.14,SE,129,0.0,2.0,96,0.00,,,0.00,meteohub,2013-06-16 12:36:00,
2013-06-16 08:41:00,64.2,62.8,30.14,SE,135,0.0,2.0,95,0.00,,,0.00,meteohub,2013-06-16 12:41:00,
2013-06-16 08:46:00,65.5,63.1,30.14,SE,131,0.0,1.0,92,0.00,,,0.00,meteohub,2013-06-16 12:46:00,
2013-06-16 08:51:00,66.6,63.1,30.13,WNW,291,0.0,1.0,89,0.00,,,0.00,meteohub,2013-06-16 12:51:00,
2013-06-16 08:56:00,67.6,62.6,30.13,SE,133,0.0,1.0,84,0.00,,,0.00,meteohub,2013-06-16 12:56:00,
2013-06-16 09:01:00,68.9,62.8,30.14,WSW,255,0.0,1.0,81,0.00,,,0.00,meteohub,2013-06-16 13:01:00,
2013-06-16 09:06:00,69.6,62.1,30.13,SE,125,0.0,1.0,77,0.00,,,0.00,meteohub,2013-06-16 13:06:00,
2013-06-16 09:11:00,69.6,62.8,30.14,SSW,206,0.0,1.0,79,0.00,,,0.00,meteohub,2013-06-16 13:11:00,
2013-06-16 09:16:00,70.2,61.9,30.13,SE,138,0.0,2.0,75,0.00,,,0.00,meteohub,2013-06-16 13:16:00,
2013-06-16 09:21:00,71.2,64.0,30.13,ESE,119,0.0,2.0,78,0.00,,,0.00,meteohub,2013-06-16 13:21:00,
2013-06-16 09:26:00,72.0,63.1,30.13,ESE,105,2.0,2.0,74,0.00,,,0.00,meteohub,2013-06-16 13:26:00,
2013-06-16 09:31:00,72.9,63.7,30.13,East,88,0.0,2.0,73,0.00,,,0.00,meteohub,2013-06-16 13:31:00,
2013-06-16 09:36:00,73.8,63.0,30.13,ESE,103,0.0,2.0,69,0.00,,,0.00,meteohub,2013-06-16 13:36:00,
2013-06-16 09:41:00,73.9,62.2,30.13,East,96,1.0,3.0,67,0.00,,,0.00,meteohub,2013-06-16 13:41:00,
2013-06-16 09:46:00,73.6,61.5,30.13,WSW,245,1.0,3.0,66,0.00,,,0.00,meteohub,2013-06-16 13:46:00,
2013-06-16 09:51:00,73.9,62.2,30.12,NW,313,0.0,3.0,67,0.00,,,0.00,meteohub,2013-06-16 13:51:00,
2013-06-16 09:56:00,74.7,62.1,30.12,ENE,77,1.0,3.0,65,0.00,,,0.00,meteohub,2013-06-16 13:56:00,
2013-06-16 10:01:00,74.5,61.9,30.12,East,85,1.0,2.0,65,0.00,,,0.00,meteohub,2013-06-16 14:01:00,
2013-06-16 10:06:00,73.8,62.6,30.12,South,187,0.0,5.0,68,0.00,,,0.00,meteohub,2013-06-16 14:06:00,
2013-06-16 10:11:00,73.8,62.1,30.12,SE,128,1.0,5.0,67,0.00,,,0.00,meteohub,2013-06-16 14:11:00,
2013-06-16 10:16:00,73.9,61.3,30.12,SE,134,2.0,5.0,65,0.00,,,0.00,meteohub,2013-06-16 14:16:00,
2013-06-16 10:21:00,74.8,62.8,30.12,ENE,67,1.0,6.0,66,0.00,,,0.00,meteohub,2013-06-16 14:21:00,
2013-06-16 10:26:00,75.4,61.9,30.12,SE,128,2.0,6.0,63,0.00,,,0.00,meteohub,2013-06-16 14:26:00,
2013-06-16 10:31:00,75.6,61.7,30.12,South,176,0.0,6.0,62,0.00,,,0.00,meteohub,2013-06-16 14:31:00,
2013-06-16 10:36:00,75.4,61.5,30.12,ESE,108,3.0,7.0,62,0.00,,,0.00,meteohub,2013-06-16 14:36:00,
2013-06-16 10:41:00,74.8,61.3,30.12,NW,311,3.0,7.0,63,0.00,,,0.00,meteohub,2013-06-16 14:41:00,
2013-06-16 10:46:00,74.7,62.1,30.11,SE,146,2.0,8.0,65,0.00,,,0.00,meteohub,2013-06-16 14:46:00,
2013-06-16 10:51:00,74.5,61.5,30.12,SW,222,3.0,8.0,64,0.00,,,0.00,meteohub,2013-06-16 14:51:00,
2013-06-16 10:56:00,74.5,61.9,30.11,SSE,152,3.0,8.0,65,0.00,,,0.00,meteohub,2013-06-16 14:56:00,
2013-06-16 11:01:00,74.5,61.9,30.11,SE,141,4.0,8.0,65,0.00,,,0.00,meteohub,2013-06-16 15:01:00,
2013-06-16 11:06:00,74.7,62.1,30.11,ESE,102,5.0,9.0,65,0.00,,,0.00,meteohub,2013-06-16 15:06:00,
2013-06-16 11:12:00,74.8,61.9,30.11,East,96,1.0,9.0,64,0.00,,,0.00,meteohub,2013-06-16 15:12:00,
2013-06-16 11:16:00,74.8,61.9,30.11,SSE,158,1.0,9.0,64,0.00,,,0.00,meteohub,2013-06-16 15:16:00,
2013-06-16 11:22:00,74.8,61.9,30.11,ENE,70,4.0,10.0,64,0.00,,,0.00,meteohub,2013-06-16 15:22:00,
2013-06-16 11:27:00,75.0,63.3,30.10,ESE,111,1.0,10.0,67,0.00,,,0.00,meteohub,2013-06-16 15:27:00,
2013-06-16 11:32:00,76.5,62.4,30.11,SW,221,1.0,10.0,62,0.00,,,0.00,meteohub,2013-06-16 15:32:00,
2013-06-16 11:37:00,76.6,62.2,30.10,SE,124,1.0,9.0,61,0.00,,,0.00,meteohub,2013-06-16 15:37:00,
2013-06-16 11:42:00,77.4,62.4,30.10,SSE,167,1.0,6.0,60,0.00,,,0.00,meteohub,2013-06-16 15:42:00,
2013-06-16 11:47:00,77.5,63.5,30.10,SE,134,2.0,6.0,62,0.00,,,0.00,meteohub,2013-06-16 15:47:00,
2013-06-16 11:52:00,78.3,64.6,30.10,West,262,3.0,6.0,63,0.00,,,0.00,meteohub,2013-06-16 15:52:00,
2013-06-16 11:57:00,77.7,62.8,30.10,WSW,255,3.0,5.0,60,0.00,,,0.00,meteohub,2013-06-16 15:57:00,
2013-06-16 12:02:00,78.3,63.3,30.10,SSW,203,0.0,5.0,60,0.00,,,0.00,meteohub,2013-06-16 16:02:00,
2013-06-16 12:07:00,78.4,63.9,30.09,ESE,118,1.0,5.0,61,0.00,,,0.00,meteohub,2013-06-16 16:07:00,
2013-06-16 12:12:00,79.0,63.0,30.09,East,97,2.0,5.0,58,0.00,,,0.00,meteohub,2013-06-16 16:12:00,
2013-06-16 12:17:00,78.8,63.7,30.09,SW,219,4.0,5.0,60,0.00,,,0.00,meteohub,2013-06-16 16:17:00,
2013-06-16 12:22:00,79.5,63.5,30.09,NNW,346,1.0,7.0,58,0.00,,,0.00,meteohub,2013-06-16 16:22:00,
2013-06-16 12:27:00,79.3,62.8,30.09,NE,34,0.0,7.0,57,0.00,,,0.00,meteohub,2013-06-16 16:27:00,
2013-06-16 12:32:00,79.9,63.3,30.09,WSW,243,0.0,6.0,57,0.00,,,0.00,meteohub,2013-06-16 16:32:00,
2013-06-16 12:37:00,79.9,64.8,30.09,SE,129,2.0,7.0,60,0.00,,,0.00,meteohub,2013-06-16 16:37:00,
2013-06-16 12:42:00,79.2,63.7,30.08,NNE,30,1.0,7.0,59,0.00,,,0.00,meteohub,2013-06-16 16:42:00,
2013-06-16 12:47:00,80.4,64.2,30.08,West,260,1.0,7.0,58,0.00,,,0.00,meteohub,2013-06-16 16:47:00,
2013-06-16 12:52:00,80.4,63.9,30.08,WNW,282,6.0,8.0,57,0.00,,,0.00,meteohub,2013-06-16 16:52:00,
2013-06-16 12:57:00,79.9,64.8,30.08,WNW,295,2.0,8.0,60,0.00,,,0.00,meteohub,2013-06-16 16:57:00,
2013-06-16 13:02:00,80.6,64.9,30.08,WNW,292,0.0,8.0,59,0.00,,,0.00,meteohub,2013-06-16 17:02:00,
2013-06-16 13:07:00,81.0,63.9,30.07,SSE,153,2.0,6.0,56,0.00,,,0.00,meteohub,2013-06-16 17:07:00,
2013-06-16 13:12:00,80.8,63.7,30.07,SE,125,2.0,7.0,56,0.00,,,0.00,meteohub,2013-06-16 17:12:00,
2013-06-16 13:17:00,80.1,64.9,30.07,SSE,160,1.0,7.0,60,0.00,,,0.00,meteohub,2013-06-16 17:17:00,
2013-06-16 13:22:00,79.5,64.9,30.07,SE,131,9.0,10.0,61,0.00,,,0.00,meteohub,2013-06-16 17:22:00,
2013-06-16 13:27:00,80.2,66.6,30.07,SSE,156,4.0,10.0,63,0.00,,,0.00,meteohub,2013-06-16 17:27:00,
2013-06-16 13:32:00,80.2,64.0,30.06,SW,229,3.0,10.0,58,0.00,,,0.00,meteohub,2013-06-16 17:32:00,
2013-06-16 13:37:00,79.7,64.0,30.06,WNW,296,4.0,9.0,59,0.00,,,0.00,meteohub,2013-06-16 17:37:00,
2013-06-16 13:42:00,80.1,64.9,30.06,ENE,71,4.0,6.0,60,0.00,,,0.00,meteohub,2013-06-16 17:42:00,
2013-06-16 13:47:00,79.2,64.0,30.06,SE,138,4.0,13.0,60,0.00,,,0.00,meteohub,2013-06-16 17:47:00,
2013-06-16 13:52:00,79.0,64.8,30.06,NE,46,4.0,13.0,62,0.00,,,0.00,meteohub,2013-06-16 17:52:00,
2013-06-16 13:57:00,79.3,63.7,30.06,SE,146,3.0,13.0,59,0.00,,,0.00,meteohub,2013-06-16 17:57:00,
2013-06-16 14:02:00,79.0,64.4,30.06,SE,139,2.0,11.0,61,0.00,,,0.00,meteohub,2013-06-16 18:02:00,
2013-06-16 14:07:00,79.2,64.9,30.06,East,89,3.0,11.0,62,0.00,,,0.00,meteohub,2013-06-16 18:07:00,
2013-06-16 14:12:00,79.9,65.3,30.06,SW,218,1.0,12.0,61,0.00,,,0.00,meteohub,2013-06-16 18:12:00,
2013-06-16 14:17:00,80.2,65.5,30.05,SE,128,3.0,12.0,61,0.00,,,0.00,meteohub,2013-06-16 18:17:00,
2013-06-16 14:22:00,81.1,64.9,30.05,NW,319,0.0,8.0,58,0.00,,,0.00,meteohub,2013-06-16 18:22:00,
2013-06-16 14:27:00,81.7,64.9,30.05,WNW,287,7.0,8.0,57,0.00,,,0.00,meteohub,2013-06-16 18:27:00,
2013-06-16 14:32:00,82.0,65.8,30.05,South,169,2.0,7.0,58,0.00,,,0.00,meteohub,2013-06-16 18:32:00,
2013-06-16 14:37:00,80.8,65.7,30.05,WSW,249,1.0,7.0,60,0.00,,,0.00,meteohub,2013-06-16 18:37:00,
2013-06-16 14:42:00,80.1,65.5,30.05,NNW,329,0.0,10.0,61,0.00,,,0.00,meteohub,2013-06-16 18:42:00,
2013-06-16 14:47:00,79.7,66.0,30.04,SE,136,1.0,10.0,63,0.00,,,0.00,meteohub,2013-06-16 18:47:00,
2013-06-16 14:51:00,80.4,65.3,30.04,East,84,0.0,8.0,60,0.00,,,0.00,meteohub,2013-06-16 18:51:00,
2013-06-16 14:56:00,81.3,66.6,30.04,SE,136,3.0,8.0,61,0.00,,,0.00,meteohub,2013-06-16 18:56:00,
2013-06-16 15:02:00,81.0,66.2,30.04,WNW,297,1.0,9.0,61,0.00,,,0.00,meteohub,2013-06-16 19:02:00,
2013-06-16 15:07:00,80.1,65.5,30.04,ENE,62,2.0,9.0,61,0.00,,,0.00,meteohub,2013-06-16 19:07:00,
2013-06-16 15:12:00,80.4,66.2,30.04,SE,124,8.0,11.0,62,0.00,,,0.00,meteohub,2013-06-16 19:12:00,
2013-06-16 15:17:00,79.5,64.9,30.04,ESE,104,4.0,11.0,61,0.00,,,0.00,meteohub,2013-06-16 19:17:00,
2013-06-16 15:22:00,79.0,65.8,30.04,ESE,116,3.0,10.0,64,0.00,,,0.00,meteohub,2013-06-16 19:22:00,
2013-06-16 15:27:00,79.0,65.3,30.04,SSE,148,1.0,10.0,63,0.00,,,0.00,meteohub,2013-06-16 19:27:00,
2013-06-16 15:32:00,79.3,66.0,30.03,NNW,339,0.0,9.0,64,0.00,,,0.00,meteohub,2013-06-16 19:32:00,
2013-06-16 15:37:00,80.1,65.8,30.03,SSE,160,2.0,8.0,62,0.00,,,0.00,meteohub,2013-06-16 19:37:00,
2013-06-16 15:42:00,80.2,66.6,30.03,ENE,71,2.0,8.0,63,0.00,,,0.00,meteohub,2013-06-16 19:42:00,
2013-06-16 15:47:00,81.1,66.0,30.03,ESE,120,5.0,8.0,60,0.00,,,0.00,meteohub,2013-06-16 19:47:00,
2013-06-16 15:52:00,81.3,65.7,30.03,North,4,2.0,8.0,59,0.00,,,0.00,meteohub,2013-06-16 19:52:00,
2013-06-16 15:57:00,81.9,66.2,30.03,NE,56,1.0,6.0,59,0.00,,,0.00,meteohub,2013-06-16 19:57:00,
2013-06-16 16:02:00,82.0,65.8,30.03,SSE,151,5.0,6.0,58,0.00,,,0.00,meteohub,2013-06-16 20:02:00,
2013-06-16 16:07:00,80.2,65.5,30.03,ESE,106,3.0,12.0,61,0.00,,,0.00,meteohub,2013-06-16 20:07:00,
2013-06-16 16:12:00,79.3,65.1,30.03,North,8,1.0,12.0,62,0.00,,,0.00,meteohub,2013-06-16 20:12:00,
2013-06-16 16:17:00,78.3,65.1,30.03,SE,132,0.0,12.0,64,0.00,,,0.00,meteohub,2013-06-16 20:17:00,
2013-06-16 16:22:00,77.7,65.8,30.03,ENE,76,0.0,8.0,67,0.00,,,0.00,meteohub,2013-06-16 20:22:00,
2013-06-16 16:27:00,77.5,65.7,30.03,SE,132,0.0,4.0,67,0.00,,,0.00,meteohub,2013-06-16 20:27:00,
2013-06-16 16:32:00,77.4,65.5,30.03,ENE,68,0.0,4.0,67,0.00,,,0.00,meteohub,2013-06-16 20:32:00,
2013-06-16 16:37:00,77.0,65.1,30.03,SSE,164,5.0,10.0,67,0.00,,,0.00,meteohub,2013-06-16 20:37:00,
2013-06-16 16:42:00,77.7,65.8,30.02,SSW,195,4.0,10.0,67,0.00,,,0.00,meteohub,2013-06-16 20:42:00,
2013-06-16 16:47:00,78.6,66.4,30.03,SSW,198,1.0,8.0,66,0.00,,,0.00,meteohub,2013-06-16 20:47:00,
2013-06-16 16:52:00,79.9,67.1,30.03,West,268,1.0,6.0,65,0.00,,,0.00,meteohub,2013-06-16 20:52:00,
2013-06-16 16:57:00,80.1,66.4,30.03,SSW,207,1.0,5.0,63,0.00,,,0.00,meteohub,2013-06-16 20:57:00,
2013-06-16 17:02:00,79.9,66.2,30.03,West,280,1.0,4.0,63,0.00,,,0.00,meteohub,2013-06-16 21:02:00,
2013-06-16 17:07:00,79.3,65.7,30.03,North,359,2.0,5.0,63,0.00,,,0.00,meteohub,2013-06-16 21:07:00,
2013-06-16 17:12:00,78.3,65.5,30.03,West,266,1.0,10.0,65,0.00,,,0.00,meteohub,2013-06-16 21:12:00,
2013-06-16 17:17:00,77.5,65.3,30.03,North,350,2.0,10.0,66,0.00,,,0.00,meteohub,2013-06-16 21:17:00,
2013-06-16 17:22:00,78.4,66.2,30.03,SSW,210,2.0,7.0,66,0.00,,,0.00,meteohub,2013-06-16 21:22:00,
2013-06-16 17:27:00,79.0,66.2,30.02,SE,143,4.0,5.0,65,0.00,,,0.00,meteohub,2013-06-16 21:27:00,
2013-06-16 17:32:00,78.6,66.7,30.02,WNW,285,4.0,7.0,67,0.00,,,0.00,meteohub,2013-06-16 21:32:00,
2013-06-16 17:37:00,78.3,66.0,30.02,SE,127,2.0,8.0,66,0.00,,,0.00,meteohub,2013-06-16 21:37:00,
2013-06-16 17:42:00,78.6,66.7,30.02,ESE,102,1.0,10.0,67,0.00,,,0.00,meteohub,2013-06-16 21:42:00,
2013-06-16 17:47:00,78.8,66.6,30.02,SSW,197,8.0,10.0,66,0.00,,,0.00,meteohub,2013-06-16 21:47:00,
2013-06-16 17:52:00,78.8,66.6,30.02,SSE,160,4.0,10.0,66,0.00,,,0.00,meteohub,2013-06-16 21:52:00,
2013-06-16 17:57:00,78.4,66.2,30.02,SE,146,0.0,9.0,66,0.00,,,0.00,meteohub,2013-06-16 21:57:00,
2013-06-16 18:02:00,78.8,66.0,30.02,SE,129,3.0,8.0,65,0.00,,,0.00,meteohub,2013-06-16 22:02:00,
2013-06-16 18:07:00,78.4,65.7,30.01,ESE,115,5.0,8.0,65,0.00,,,0.00,meteohub,2013-06-16 22:07:00,
2013-06-16 18:12:00,77.5,66.2,30.02,WSW,249,1.0,8.0,68,0.00,,,0.00,meteohub,2013-06-16 22:12:00,
2013-06-16 18:17:00,77.4,66.0,30.01,ENE,67,3.0,8.0,68,0.00,,,0.00,meteohub,2013-06-16 22:17:00,
2013-06-16 18:22:00,77.2,66.2,30.01,SE,134,0.0,8.0,69,0.00,,,0.00,meteohub,2013-06-16 22:22:00,
2013-06-16 18:27:00,77.5,66.6,30.01,ESE,122,1.0,8.0,69,0.00,,,0.00,meteohub,2013-06-16 22:27:00,
2013-06-16 18:32:00,77.5,66.2,30.01,East,90,1.0,7.0,68,0.00,,,0.00,meteohub,2013-06-16 22:32:00,
2013-06-16 18:37:00,77.4,65.5,30.01,ESE,105,1.0,6.0,67,0.00,,,0.00,meteohub,2013-06-16 22:37:00,
2013-06-16 18:42:00,77.2,65.8,30.01,ENE,72,4.0,6.0,68,0.00,,,0.00,meteohub,2013-06-16 22:42:00,
2013-06-16 18:47:00,77.0,65.7,30.01,ESE,103,2.0,6.0,68,0.00,,,0.00,meteohub,2013-06-16 22:47:00,
2013-06-16 18:52:00,76.5,65.5,30.01,East,79,0.0,8.0,69,0.00,,,0.00,meteohub,2013-06-16 22:52:00,
2013-06-16 18:57:00,76.3,65.8,30.01,SE,139,0.0,8.0,70,0.00,,,0.00,meteohub,2013-06-16 22:57:00,
2013-06-16 19:02:00,76.3,65.8,30.01,ESE,116,0.0,8.0,70,0.00,,,0.00,meteohub,2013-06-16 23:02:00,
2013-06-16 19:07:00,76.1,66.0,30.01,ESE,115,2.0,5.0,71,0.00,,,0.00,meteohub,2013-06-16 23:07:00,
2013-06-16 19:12:00,75.9,66.2,30.01,South,177,0.0,3.0,72,0.00,,,0.00,meteohub,2013-06-16 23:12:00,
2013-06-16 19:17:00,75.4,65.7,30.01,SE,138,0.0,3.0,72,0.00,,,0.00,meteohub,2013-06-16 23:17:00,
2013-06-16 19:22:00,74.8,65.1,30.01,SE,138,0.0,3.0,72,0.00,,,0.00,meteohub,2013-06-16 23:22:00,
2013-06-16 19:27:00,74.3,65.5,30.01,SSE,150,0.0,5.0,74,0.00,,,0.00,meteohub,2013-06-16 23:27:00,
2013-06-16 19:32:00,73.9,65.1,30.01,ENE,64,0.0,6.0,74,0.00,,,0.00,meteohub,2013-06-16 23:32:00,
2013-06-16 19:37:00,73.6,64.8,30.01,ESE,122,0.0,6.0,74,0.00,,,0.00,meteohub,2013-06-16 23:37:00,
2013-06-16 19:42:00,73.4,65.3,30.01,ESE,121,0.0,3.0,76,0.00,,,0.00,meteohub,2013-06-16 23:42:00,
2013-06-16 19:47:00,73.0,64.9,30.01,ESE,121,0.0,3.0,76,0.00,,,0.00,meteohub,2013-06-16 23:47:00,
2013-06-16 19:52:00,72.7,65.1,30.02,SE,127,0.0,1.0,77,0.00,,,0.00,meteohub,2013-06-16 23:52:00,
2013-06-16 19:57:00,72.5,65.3,30.01,SE,127,0.0,1.0,78,0.00,,,0.00,meteohub,2013-06-16 23:57:00,
2013-06-16 20:02:00,72.1,65.3,30.01,NNE,20,0.0,1.0,79,0.00,,,0.00,meteohub,2013-06-17 00:02:00,
2013-06-16 20:07:00,72.0,65.5,30.01,ESE,118,0.0,1.0,80,0.00,,,0.00,meteohub,2013-06-17 00:07:00,
2013-06-16 20:12:00,71.8,65.3,30.01,SSE,152,0.0,5.0,80,0.00,,,0.00,meteohub,2013-06-17 00:12:00,
2013-06-16 20:25:00,71.1,64.9,30.02,ESE,102,0.0,5.0,81,0.00,,,0.00,meteohub,2013-06-17 00:25:00,
2013-06-16 20:30:00,70.9,64.8,30.02,West,268,0.0,3.0,81,0.00,,,0.00,meteohub,2013-06-17 00:30:00,
2013-06-16 20:35:00,70.5,64.8,30.02,West,269,0.0,2.0,82,0.00,,,0.00,meteohub,2013-06-17 00:35:00,
2013-06-16 20:40:00,70.3,64.6,30.03,West,274,0.0,2.0,82,0.00,,,0.00,meteohub,2013-06-17 00:40:00,
2013-06-16 20:45:00,70.2,64.8,30.03,ESE,119,2.0,2.0,83,0.00,,,0.00,meteohub,2013-06-17 00:45:00,
2013-06-16 20:50:00,70.2,64.8,30.02,SSW,194,0.0,1.0,83,0.00,,,0.00,meteohub,2013-06-17 00:50:00,
2013-06-16 20:55:00,70.0,64.6,30.03,SSW,194,0.0,2.0,83,0.00,,,0.00,meteohub,2013-06-17 00:55:00,
2013-06-16 21:00:00,69.6,64.6,30.03,SSW,194,0.0,2.0,84,0.00,,,0.00,meteohub,2013-06-17 01:00:00,
2013-06-16 21:05:00,69.4,64.4,30.03,SSW,192,0.0,2.0,84,0.00,,,0.00,meteohub,2013-06-17 01:05:00,
2013-06-16 21:10:00,69.4,64.8,30.02,SSE,151,0.0,0.0,85,0.00,,,0.00,meteohub,2013-06-17 01:10:00,
2013-06-16 21:15:00,69.1,64.4,30.02,SSE,150,0.0,0.0,85,0.00,,,0.00,meteohub,2013-06-17 01:15:00,
2013-06-16 21:20:00,68.9,64.2,30.02,ENE,73,0.0,1.0,85,0.00,,,0.00,meteohub,2013-06-17 01:20:00,
2013-06-16 21:25:00,68.7,64.4,30.02,ENE,74,0.0,1.0,86,0.00,,,0.00,meteohub,2013-06-17 01:25:00,
2013-06-16 21:30:00,68.7,64.0,30.03,South,173,0.0,2.0,85,0.00,,,0.00,meteohub,2013-06-17 01:30:00,
2013-06-16 21:35:00,69.1,64.8,30.03,East,97,0.0,2.0,86,0.00,,,0.00,meteohub,2013-06-17 01:35:00,
2013-06-16 21:40:00,68.7,64.0,30.03,East,101,0.0,2.0,85,0.00,,,0.00,meteohub,2013-06-17 01:40:00,
2013-06-16 21:45:00,68.7,64.0,30.03,East,95,0.0,1.0,85,0.00,,,0.00,meteohub,2013-06-17 01:45:00,
2013-06-16 21:50:00,68.5,64.2,30.03,East,95,0.0,1.0,86,0.00,,,0.00,meteohub,2013-06-17 01:50:00,
2013-06-16 21:55:00,69.1,64.4,30.03,ESE,111,0.0,4.0,85,0.00,,,0.00,meteohub,2013-06-17 01:55:00,
2013-06-16 22:00:00,69.3,64.2,30.04,ESE,111,0.0,4.0,84,0.00,,,0.00,meteohub,2013-06-17 02:00:00,
2013-06-16 22:05:00,69.1,64.4,30.04,ESE,108,0.0,4.0,85,0.00,,,0.00,meteohub,2013-06-17 02:05:00,
2013-06-16 22:10:00,69.1,64.4,30.04,ESE,108,0.0,4.0,85,0.00,,,0.00,meteohub,2013-06-17 02:10:00,
2013-06-16 22:15:00,68.9,64.6,30.04,ESE,108,0.0,4.0,86,0.00,,,0.00,meteohub,2013-06-17 02:15:00,
2013-06-16 22:20:00,68.5,64.6,30.05,ESE,119,0.0,4.0,87,0.00,,,0.00,meteohub,2013-06-17 02:20:00,
2013-06-16 22:25:00,68.4,64.4,30.05,ESE,119,0.0,0.0,87,0.00,,,0.00,meteohub,2013-06-17 02:25:00,
2013-06-16 22:30:00,68.2,64.2,30.05,ESE,119,0.0,0.0,87,0.00,,,0.00,meteohub,2013-06-17 02:30:00,
2013-06-16 22:35:00,67.8,63.9,30.05,ESE,119,0.0,0.0,87,0.00,,,0.00,meteohub,2013-06-17 02:35:00,
2013-06-16 22:40:00,67.8,64.2,30.05,ESE,119,0.0,0.0,88,0.00,,,0.00,meteohub,2013-06-17 02:40:00,
2013-06-16 22:45:00,67.8,64.4,30.05,NNE,12,0.0,1.0,89,0.00,,,0.00,meteohub,2013-06-17 02:45:00,
2013-06-16 22:50:00,67.8,64.4,30.04,SSW,197,0.0,1.0,89,0.00,,,0.00,meteohub,2013-06-17 02:50:00,
2013-06-16 22:55:00,67.8,64.4,30.04,SE,137,0.0,1.0,89,0.00,,,0.00,meteohub,2013-06-17 02:55:00,
2013-06-16 23:00:00,67.8,64.4,30.04,SE,136,0.0,1.0,89,0.00,,,0.00,meteohub,2013-06-17 03:00:00,
2013-06-16 23:05:00,68.0,64.6,30.04,SE,136,0.0,1.0,89,0.00,,,0.00,meteohub,2013-06-17 03:05:00,
2013-06-16 23:10:00,68.0,64.6,30.04,East,96,0.0,0.0,89,0.00,,,0.00,meteohub,2013-06-17 03:10:00,
2013-06-16 23:15:00,68.4,64.6,30.04,ESE,119,0.0,1.0,88,0.00,,,0.00,meteohub,2013-06-17 03:15:00,
2013-06-16 23:20:00,68.4,64.6,30.04,East,88,0.0,1.0,88,0.00,,,0.00,meteohub,2013-06-17 03:20:00,
2013-06-16 23:25:00,68.2,64.4,30.04,East,88,0.0,1.0,88,0.00,,,0.00,meteohub,2013-06-17 03:25:00,
2013-06-16 23:30:00,68.2,64.4,30.04,East,88,0.0,1.0,88,0.00,,,0.00,meteohub,2013-06-17 03:30:00,
2013-06-16 23:35:00,68.2,64.4,30.04,ENE,69,0.0,1.0,88,0.00,,,0.00,meteohub,2013-06-17 03:35:00,
2013-06-16 23:41:00,68.4,64.6,30.03,ESE,121,0.0,1.0,88,0.00,,,0.00,meteohub,2013-06-17 03:41:00,
2013-06-16 23:46:00,68.4,64.6,30.04,ESE,121,0.0,1.0,88,0.00,,,0.00,meteohub,2013-06-17 03:46:00,
2013-06-16 23:50:00,68.2,64.4,30.03,ESE,121,0.0,1.0,88,0.00,,,0.00,meteohub,2013-06-17 03:50:00,
2013-06-16 23:55:00,68.2,64.8,30.03,ESE,121,0.0,0.0,89,0.00,,,0.00,meteohub,2013-06-17 03:55:00,